• Join FlightAware (Why Join?)
  • Login
  • US Flag 
04:32AM EST


 

Airport Tracker/Info


-or-


 

Live Flight TrackerFlight Track Log ✈ N143DE ✈ 14-Oct-2013 ✈ KMCO - KRYY

Flight Track Log - Related Links

Times and Time Zones

All times are in EDT time to prevent confusion due to time zone crossing. See the N143DE flight status page for this flight to view local times or setup timezone preferences in your user account.

Time Position Orientation Groundspeed Altitude Reporting Facility
EDT Latitude Longitude Course Direction KTS MPH feet Rate Location/Type
07:22AM 28.4333 -81.3333 270° West 149 171 500  Level Orlando TRACON
07:23AM 28.4333 -81.3500 270° West 191 220 1,500 1,740 Climbing Orlando TRACON
07:24AM 28.4333 -81.4167 270° West 173 199 3,700 1,980 Climbing Orlando TRACON
07:25AM 28.4833 -81.4500 330° Northwest 173 199 5,700 1,800 Climbing Orlando TRACON
07:26AM 28.5333 -81.4500 360° North 198 228 7,300 1,680 Climbing Orlando TRACON
07:27AM 28.5833 -81.4500 360° North 197 227 9,300 1,320 Climbing Orlando TRACON
07:29AM 28.6928 -81.4558 357° North 203 234 11,500 900 Climbing Jacksonville Center
07:30AM 28.7556 -81.4575 359° North 203 234 12,000 240 Climbing Jacksonville Center
07:31AM 28.8222 -81.4636 355° North 220 253 12,000  Level Jacksonville Center
07:32AM 28.8911 -81.4625 North 235 270 12,000  Level Jacksonville Center
07:33AM 28.9533 -81.4236 29° Northeast 240 276 12,000  Level Jacksonville Center
07:34AM 29.0175 -81.3847 28° Northeast 254 292 12,100 540 Climbing Jacksonville Center
07:35AM 29.0822 -81.3839 North 236 272 13,100 900 Climbing Jacksonville Center
07:36AM 29.1428 -81.3900 355° North 226 260 13,900 840 Climbing Jacksonville Center
07:37AM 29.2033 -81.3939 357° North 219 252 14,800 840 Climbing Jacksonville Center
07:38AM 29.2619 -81.4072 349° North 219 252 15,600 720 Climbing Jacksonville Center
07:39AM 29.3228 -81.4133 355° North 218 251 16,300 600 Climbing Jacksonville Center
07:40AM 29.3753 -81.4389 337° Northwest 217 250 16,900 720 Climbing Jacksonville Center
07:41AM 29.4339 -81.4642 339° North 217 250 17,800 1,020 Climbing Jacksonville Center
07:42AM 29.4800 -81.4850 339° North 204 235 19,000 1,080 Climbing Jacksonville Center
07:43AM 29.5261 -81.5011 343° North 183 211 20,000 840 Climbing Jacksonville Center
07:44AM 29.5722 -81.5219 339° North 171 197 20,700 720 Climbing Jacksonville Center
07:45AM 29.6164 -81.5406 340° North 171 197 21,500 720 Climbing Jacksonville Center
07:46AM 29.6625 -81.5589 341° North 171 197 22,200 600 Climbing Jacksonville Center
07:47AM 29.7086 -81.5797 339° North 171 197 22,800 360 Climbing Jacksonville Center
07:48AM 29.7525 -81.5983 340° North 171 197 23,000 60 Climbing Jacksonville Center
07:49AM 29.8031 -81.6217 338° Northwest 176 203 23,000  Level Jacksonville Center
07:50AM 29.8575 -81.6425 342° North 187 215 23,000  Level Jacksonville Center
07:51AM 29.9119 -81.6656 340° North 192 221 23,000  Level Jacksonville Center
07:52AM 29.9644 -81.6889 339° North 197 227 23,000  Level Jacksonville Center
07:53AM 30.0208 -81.7122 340° North 203 234 23,000  Level Jacksonville Center
07:54AM 30.0775 -81.7333 342° North 203 234 23,000  Level Jacksonville Center
07:55AM 30.1319 -81.7567 340° North 210 242 23,000  Level Jacksonville Center
07:56AM 30.1886 -81.7822 339° North 210 242 23,000  Level Jacksonville Center
07:57AM 30.2431 -81.8081 338° Northwest 210 242 23,000  Level Jacksonville Center
07:58AM 30.2975 -81.8269 343° North 216 249 23,000  Level Jacksonville Center
07:59AM 30.3519 -81.8528 338° Northwest 210 242 23,000  Level Jacksonville Center
08:00AM 30.4106 -81.8736 343° North 210 242 23,000  Level Jacksonville Center
08:01AM 30.4631 -81.9019 335° Northwest 210 242 23,000  Level Jacksonville Center
08:02AM 30.5197 -81.9233 342° North 215 247 23,000  Level Jacksonville Center
08:03AM 30.5742 -81.9517 336° Northwest 215 247 23,000  Level Jacksonville Center
08:04AM 30.6286 -81.9753 340° North 215 247 23,000  Level Jacksonville Center
08:05AM 30.6853 -81.9989 340° North 215 247 23,000  Level Jacksonville Center
08:06AM 30.7375 -82.0225 339° North 215 247 23,000  Level Jacksonville Center
08:07AM 30.7942 -82.0486 338° Northwest 215 247 23,000  Level Jacksonville Center
08:08AM 30.8486 -82.0700 341° North 215 247 23,000  Level Jacksonville Center
08:09AM 30.9050 -82.0961 338° Northwest 215 247 23,000 -300 Level Jacksonville Center
08:10AM 30.9617 -82.1222 338° Northwest 215 247 22,400 -480 Descending Jacksonville Center
08:11AM 31.0244 -82.1483 340° North 221 254 22,100 -180 Descending Jacksonville Center
08:12AM 31.0872 -82.1769 339° North 227 261 22,100 -60 Level Jacksonville Center
08:13AM 31.1458 -82.2031 339° North 227 261 22,000 -60 Descending Jacksonville Center
08:14AM 31.2022 -82.2247 342° North 227 261 22,000  Level Jacksonville Center
08:15AM 31.2608 -82.2508 339° North 227 261 22,000  Level Jacksonville Center
08:16AM 31.3194 -82.2772 339° North 227 261 22,000  Level Jacksonville Center
08:17AM 31.3758 -82.2989 342° North 222 255 22,000  Level Jacksonville Center
08:18AM 31.4344 -82.3278 337° Northwest 222 255 22,100  Climbing Jacksonville Center
08:19AM 31.4953 -82.3517 341° North 222 255 22,100  Level Jacksonville Center
08:20AM 31.5517 -82.3781 338° Northwest 222 255 22,100  Level Jacksonville Center
08:21AM 31.6144 -82.4047 340° North 227 261 22,100  Level Jacksonville Center
08:22AM 31.6708 -82.4286 340° North 227 261 22,100  Level Jacksonville Center
08:23AM 31.7294 -82.4553 339° North 227 261 22,100  Level Jacksonville Center
08:24AM 31.7900 -82.4819 339° North 227 261 22,100  Level Jacksonville Center
08:25AM 31.8506 -82.5086 339° North 233 268 22,100  Level Jacksonville Center
08:26AM 31.9114 -82.5378 338° Northwest 233 268 22,100  Level Jacksonville Center
08:27AM 31.9678 -82.5619 340° North 233 268 22,100  Level Jacksonville Center
08:28AM 32.0283 -82.5886 340° North 233 268 22,100  Level Jacksonville Center
08:29AM 32.0869 -82.6178 337° Northwest 233 268 22,100  Level Jacksonville Center
08:30AM 32.1289 -82.6358 340° North 232 267 22,100  Level Atlanta Center
08:31AM 32.1878 -82.6644 338° Northwest 227 261 22,100  Level Atlanta Center
08:32AM 32.2486 -82.6906 340° North 227 261 22,100  Level Atlanta Center
08:33AM 32.3114 -82.7192 339° North 232 267 22,100  Level Atlanta Center
08:34AM 32.3703 -82.7453 339° North 232 267 22,100  Level Atlanta Center
08:35AM 32.4308 -82.7739 338° Northwest 232 267 22,100  Level Atlanta Center
08:36AM 32.4917 -82.8003 340° North 232 267 22,100  Level Atlanta Center
08:37AM 32.5547 -82.8264 341° North 232 267 22,100 -420 Level Atlanta Center
08:38AM 32.6072 -82.8750 322° Northwest 232 267 21,300 -900 Descending Atlanta Center
08:39AM 32.6622 -82.9311 319° Northwest 249 287 20,300 -960 Descending Atlanta Center
08:40AM 32.7211 -82.9894 320° Northwest 257 296 19,400 -1,080 Descending Atlanta Center
08:41AM 32.7800 -83.0481 320° Northwest 270 311 18,200 -1,200 Descending Atlanta Center
08:42AM 32.8389 -83.1092 319° Northwest 270 311 17,000 -1,440 Descending Atlanta Center
08:43AM 32.9019 -83.1703 321° Northwest 277 319 15,400 -1,500 Descending Atlanta Center
08:44AM 32.9608 -83.2292 320° Northwest 282 325 14,000 -1,440 Descending Atlanta Center
08:45AM 33.0197 -83.2956 317° Northwest 288 331 12,600 -1,320 Descending Atlanta Center
08:46AM 33.0742 -83.3522 319° Northwest 288 331 11,400 -840 Descending Atlanta Center
08:47AM 33.1289 -83.4064 320° Northwest 280 322 11,000 -600 Descending Atlanta Center
08:48AM 33.1814 -83.4656 317° Northwest 264 304 10,200 -900 Descending Atlanta Center
08:49AM 33.2400 -83.5197 322° Northwest 269 310 9,300 -660 Descending Atlanta Center
08:51AM 33.3833 -83.6667 319° Northwest 257 296 8,100 -360 Descending Atlanta TRACON
08:52AM 33.4500 -83.7000 337° Northwest 253 291 8,100 -480 Level Atlanta TRACON
08:53AM 33.5167 -83.7000 360° North 257 296 7,200 -900 Descending Atlanta TRACON
08:54AM 33.5833 -83.7167 348° North 259 298 6,300 -900 Descending Atlanta TRACON
08:55AM 33.6500 -83.7333 348° North 259 298 5,400 -900 Descending Atlanta TRACON
08:56AM 33.7167 -83.8000 320° Northwest 255 293 4,500 -720 Descending Atlanta TRACON
08:57AM 33.7667 -83.8500 320° Northwest 247 284 4,000 -300 Descending Atlanta TRACON
08:58AM 33.8167 -83.8833 331° Northwest 231 266 4,000  Level Atlanta TRACON
08:59AM 33.8667 -83.9333 320° Northwest 222 255 4,000  Level Atlanta TRACON
09:00AM 33.9167 -83.9833 320° Northwest 221 254 4,000  Level Atlanta TRACON
09:01AM 33.9667 -84.0333 320° Northwest 221 254 4,000  Level Atlanta TRACON
09:02AM 34.0000 -84.0833 309° West 227 261 4,000  Level Atlanta TRACON
09:03AM 34.0167 -84.1500 287° West 230 265 4,000  Level Atlanta TRACON
09:04AM 34.0500 -84.2167 301° West 229 264 4,000  Level Atlanta TRACON
09:05AM 34.0667 -84.3000 284° West 227 261 4,000  Level Atlanta TRACON
09:06AM 34.1000 -84.3667 301° West 228 262 4,000  Level Atlanta TRACON
09:07AM 34.1000 -84.4333 270° West 231 266 4,000 -60 Level Atlanta TRACON
09:08AM 34.1000 -84.5167 270° West 235 270 3,900 -360 Descending Atlanta TRACON
09:09AM 34.1000 -84.6000 270° West 236 272 3,300 -420 Descending Atlanta TRACON
09:10AM 34.1000 -84.6833 270° West 235 270 3,100 -180 Descending Atlanta TRACON
09:11AM 34.1000 -84.7500 270° West 193 222 3,000 -60 Descending Atlanta TRACON
09:12AM 34.1000 -84.8000 270° West 166 191 3,000  Level Atlanta TRACON
09:15AM 34.0167 -84.8167 189° South 139 160 3,100  Climbing Atlanta TRACON
09:16AM 34.0000 -84.7833 121° Southeast 127 146 3,000 -240 Descending Atlanta TRACON
09:17AM 34.0000 -84.7333 90° East 132 152 2,700 -180 Descending Atlanta TRACON
09:18AM 34.0167 -84.7000 59° Northeast 92 106 2,700 -300 Level Atlanta TRACON
09:19AM 34.0167 -84.6667 90° East 120 138 2,100 -600 Descending Atlanta TRACON